createdAt,value
2019-02-12T00:00:47.491Z,71.99
2019-02-12T00:03:16.852Z,72.27
2019-02-12T00:05:46.585Z,72.36
2019-02-12T00:08:16.108Z,72.51
2019-02-12T00:10:45.433Z,72.88
2019-02-12T00:13:14.847Z,72.52
2019-02-12T00:15:44.176Z,72.74
2019-02-12T00:18:13.595Z,72.89
2019-02-12T00:20:42.924Z,72.75
2019-02-12T00:23:12.959Z,72.93
2019-02-12T00:25:42.293Z,73.04
2019-02-12T00:28:11.659Z,72.94
2019-02-12T00:30:40.985Z,73.23
2019-02-12T00:33:10.343Z,73.11
2019-02-12T00:35:39.662Z,73.26
2019-02-12T00:38:09.012Z,73.63
2019-02-12T00:40:38.341Z,73.67
2019-02-12T00:43:07.698Z,73.50
2019-02-12T00:45:37.027Z,73.41
2019-02-12T00:48:06.388Z,73.24
2019-02-12T00:50:35.762Z,73.20
2019-02-12T00:53:05.181Z,73.38
2019-02-12T00:55:34.540Z,73.29
2019-02-12T00:58:03.900Z,73.32
2019-02-12T01:00:33.227Z,73.43
2019-02-12T01:03:02.584Z,73.72
2019-02-12T01:05:31.913Z,73.69
2019-02-12T01:08:01.263Z,73.83
2019-02-12T01:10:30.590Z,73.91
2019-02-12T01:12:59.936Z,74.02
2019-02-12T01:15:29.256Z,74.05
2019-02-12T01:17:58.611Z,74.03
2019-02-12T01:20:27.955Z,74.09
2019-02-12T01:22:57.287Z,74.08
2019-02-12T01:25:26.612Z,74.09
2019-02-12T01:27:55.964Z,74.34
2019-02-12T01:30:25.289Z,74.38
2019-02-12T01:32:54.642Z,74.31
2019-02-12T01:35:23.957Z,74.25
2019-02-12T01:37:53.309Z,74.30
2019-02-12T01:40:24.939Z,74.18
2019-02-12T01:42:54.321Z,74.39
2019-02-12T01:45:23.653Z,74.39
2019-02-12T01:47:53.002Z,74.27
2019-02-12T01:50:22.355Z,74.20
2019-02-12T01:52:51.747Z,74.24
2019-02-12T01:55:21.116Z,74.41
2019-02-12T01:57:50.443Z,74.52
2019-02-12T02:00:19.873Z,74.47
2019-02-12T02:02:49.187Z,74.62
2019-02-12T02:05:18.552Z,74.58
2019-02-12T02:07:47.888Z,75.02
2019-02-12T02:10:17.913Z,74.40
2019-02-12T02:12:47.316Z,74.46
2019-02-12T02:15:16.892Z,74.42
2019-02-12T02:17:46.220Z,74.17
2019-02-12T02:20:16.105Z,74.16
2019-02-12T02:22:45.680Z,74.07
2019-02-12T02:25:15.041Z,73.95
2019-02-12T02:27:44.352Z,74.07
2019-02-12T02:30:16.397Z,73.93
2019-02-12T02:32:45.713Z,73.52
2019-02-12T02:35:15.089Z,73.65
2019-02-12T02:37:44.414Z,73.69
2019-02-12T02:40:13.787Z,73.48
2019-02-12T02:42:43.123Z,73.29
2019-02-12T02:45:13.101Z,73.02
2019-02-12T02:47:42.427Z,73.03
2019-02-12T02:50:11.788Z,72.73
2019-02-12T02:52:41.105Z,72.49
2019-02-12T02:55:10.529Z,72.70
2019-02-12T02:57:39.855Z,72.51
2019-02-12T03:00:10.858Z,72.53
2019-02-12T03:02:40.182Z,72.55
2019-02-12T03:05:11.067Z,72.51
2019-02-12T03:07:40.408Z,72.34
2019-02-12T03:10:10.508Z,72.27
2019-02-12T03:12:39.829Z,72.39
2019-02-12T03:15:10.721Z,71.93
2019-02-12T03:17:40.051Z,71.94
2019-02-12T03:20:12.476Z,72.01
2019-02-12T03:22:41.785Z,71.93
2019-02-12T03:25:11.142Z,72.12
2019-02-12T03:27:40.480Z,71.85
2019-02-12T03:30:12.389Z,71.88
2019-02-12T03:32:42.198Z,72.22
2019-02-12T03:35:11.839Z,71.95
2019-02-12T03:37:41.168Z,71.87
2019-02-12T03:40:12.154Z,72.08
2019-02-12T03:42:41.472Z,72.00
2019-02-12T03:45:13.906Z,72.19
2019-02-12T03:47:43.244Z,72.19
2019-02-12T03:50:12.752Z,72.46
2019-02-12T03:52:42.078Z,72.25
2019-02-12T03:55:12.679Z,72.41
2019-02-12T03:57:41.981Z,72.69
2019-02-12T04:00:14.129Z,72.71
2019-02-12T04:03:06.472Z,72.89
2019-02-12T04:05:37.370Z,72.87
2019-02-12T04:08:06.837Z,72.95
2019-02-12T04:10:36.188Z,73.12
2019-02-12T04:13:05.510Z,73.25
2019-02-12T04:15:34.942Z,73.41
2019-02-12T04:18:04.273Z,73.46
2019-02-12T04:20:33.628Z,73.81
2019-02-12T04:23:02.942Z,73.77
2019-02-12T04:25:32.306Z,73.82
2019-02-12T04:28:01.649Z,73.77
2019-02-12T04:30:30.979Z,73.94
2019-02-12T04:33:00.298Z,74.02
2019-02-12T04:35:29.666Z,73.79
2019-02-12T04:37:58.988Z,73.74
2019-02-12T04:40:28.352Z,73.88
2019-02-12T04:42:57.679Z,73.79
2019-02-12T04:45:27.034Z,73.59
2019-02-12T04:47:56.357Z,73.61
2019-02-12T04:50:25.708Z,73.35
2019-02-12T04:52:55.027Z,73.10
2019-02-12T04:55:24.386Z,72.85
2019-02-12T04:57:53.730Z,72.93
2019-02-12T05:00:23.057Z,72.91
2019-02-12T05:02:52.387Z,72.73
2019-02-12T05:05:21.733Z,72.39
2019-02-12T05:07:51.065Z,72.41
2019-02-12T05:10:26.138Z,72.11
2019-02-12T05:12:55.453Z,72.19
2019-02-12T05:15:24.817Z,72.28
2019-02-12T05:17:54.144Z,72.24
2019-02-12T05:20:23.500Z,72.47
2019-02-12T05:22:52.835Z,72.20
2019-02-12T05:25:22.212Z,72.39
2019-02-12T05:27:51.538Z,72.20
2019-02-12T05:30:20.883Z,72.15
2019-02-12T05:32:50.242Z,72.32
2019-02-12T05:35:19.835Z,72.26
2019-02-12T05:37:49.187Z,72.35
2019-02-12T05:40:18.514Z,72.53
2019-02-12T05:42:47.862Z,72.17
2019-02-12T05:45:17.189Z,71.99
2019-02-12T05:47:46.627Z,71.96
2019-02-12T05:50:17.396Z,71.36
2019-02-12T05:52:53.967Z,71.47
2019-02-12T05:55:17.775Z,71.40
2019-02-12T05:57:47.125Z,71.28
2019-02-12T06:00:19.773Z,71.44
2019-02-12T06:02:49.121Z,71.33
2019-02-12T06:05:31.783Z,71.19
2019-02-12T06:08:01.698Z,71.36
2019-02-12T06:10:31.028Z,71.21
2019-02-12T06:13:00.470Z,71.58
2019-02-12T06:15:29.840Z,71.58
2019-02-12T06:17:59.206Z,71.07
2019-02-12T06:20:28.540Z,71.18
2019-02-12T06:23:03.849Z,71.50
2019-02-12T06:25:28.948Z,71.39
2019-02-12T06:27:58.281Z,71.46
2019-02-12T06:30:27.615Z,71.41
2019-02-12T06:32:56.963Z,71.66
2019-02-12T06:35:26.347Z,72.03
2019-02-12T06:37:55.733Z,71.60
2019-02-12T06:40:25.095Z,71.42
2019-02-12T06:42:54.498Z,71.17
2019-02-12T06:45:23.840Z,71.09
2019-02-12T06:47:53.204Z,71.05
2019-02-12T06:50:22.534Z,71.04
2019-02-12T06:52:51.934Z,70.37
2019-02-12T06:55:21.268Z,71.32
2019-02-12T06:57:50.646Z,70.85
2019-02-12T07:00:19.974Z,70.11
2019-02-12T07:03:12.320Z,69.94
2019-02-12T07:05:50.523Z,69.85
2019-02-12T07:08:54.489Z,69.90
2019-02-12T07:11:39.021Z,70.54
2019-02-12T07:14:31.139Z,70.67
2019-02-12T07:17:24.804Z,69.83
2019-02-12T07:20:28.437Z,70.10
2019-02-12T07:23:21.348Z,69.46
2019-02-12T07:26:05.115Z,69.42
2019-02-12T07:28:52.583Z,69.60
2019-02-12T07:31:47.351Z,69.69
2019-02-12T07:34:28.913Z,69.73
2019-02-12T07:37:16.382Z,69.41
2019-02-12T07:40:00.583Z,69.21
2019-02-12T07:42:36.106Z,69.07
2019-02-12T07:45:26.458Z,69.65
2019-02-12T07:48:14.146Z,68.97
2019-02-12T07:50:46.751Z,68.75
2019-02-12T07:53:31.586Z,69.23
2019-02-12T07:56:12.821Z,68.31
2019-02-12T07:58:59.716Z,68.24
2019-02-12T08:01:50.065Z,68.22
2019-02-12T08:04:31.434Z,68.42
2019-02-12T08:07:09.492Z,68.26
2019-02-12T08:09:56.947Z,67.62
2019-02-12T08:12:38.027Z,67.51
2019-02-12T08:15:16.286Z,67.23
2019-02-12T08:17:52.697Z,67.49
2019-02-12T08:20:28.200Z,67.57
2019-02-12T08:23:25.954Z,67.35
2019-02-12T08:26:13.243Z,66.99
2019-02-12T08:28:52.152Z,67.12
2019-02-12T08:31:27.620Z,66.87
2019-02-12T08:34:06.180Z,66.70
2019-02-12T08:36:55.039Z,66.24
2019-02-12T08:39:43.972Z,66.21
2019-02-12T08:42:28.744Z,65.88
2019-02-12T08:45:10.301Z,64.74
2019-02-12T08:47:54.053Z,64.83
2019-02-12T08:50:45.233Z,64.33
2019-02-12T08:53:38.480Z,63.78
2019-02-12T08:56:31.706Z,63.56
2019-02-12T08:59:16.144Z,62.22
2019-02-12T09:02:00.371Z,61.42
2019-02-12T09:04:42.006Z,59.18
2019-02-12T09:07:20.325Z,55.62
2019-02-12T09:10:16.689Z,52.46
2019-02-12T09:13:08.330Z,51.71
2019-02-12T09:16:01.895Z,50.03
2019-02-12T09:18:40.407Z,50.90
2019-02-12T09:21:15.701Z,52.06
2019-02-12T09:24:12.286Z,52.57
2019-02-12T09:26:45.301Z,53.60
2019-02-12T09:29:20.532Z,50.31
2019-02-12T09:31:56.442Z,51.05
2019-02-12T09:34:29.190Z,50.58
2019-02-12T09:37:20.846Z,50.73
2019-02-12T09:40:18.830Z,54.58
2019-02-12T09:42:52.781Z,56.52
2019-02-12T09:45:34.332Z,57.62
2019-02-12T09:48:09.570Z,55.24
2019-02-12T09:50:50.063Z,58.33
2019-02-12T09:53:39.055Z,58.48
2019-02-12T09:56:17.177Z,58.76
2019-02-12T09:58:55.346Z,59.26
2019-02-12T10:01:33.989Z,58.74
2019-02-12T10:04:18.180Z,56.61
2019-02-12T10:06:56.466Z,58.15
2019-02-12T10:09:38.110Z,59.19
2019-02-12T10:12:37.704Z,54.21
2019-02-12T10:15:19.235Z,48.47
2019-02-12T10:18:09.803Z,48.20
2019-02-12T10:20:53.952Z,48.09
2019-02-12T10:23:32.479Z,45.76
2019-02-12T10:26:05.402Z,46.75
2019-02-12T10:28:59.659Z,48.00
2019-02-12T10:31:28.981Z,50.62
2019-02-12T10:33:58.474Z,51.04
2019-02-12T10:36:27.821Z,51.96
2019-02-12T10:38:57.227Z,49.92
2019-02-12T10:41:26.558Z,49.92
2019-02-12T10:43:55.925Z,50.97
2019-02-12T10:46:25.289Z,50.10
2019-02-12T10:48:54.656Z,50.31
2019-02-12T10:51:24.983Z,50.32
2019-02-12T10:53:54.315Z,49.02
2019-02-12T10:56:23.665Z,50.32
2019-02-12T10:58:53.967Z,51.00
2019-02-12T11:01:23.335Z,50.44
2019-02-12T11:03:52.662Z,50.23
2019-02-12T11:06:22.035Z,51.89
2019-02-12T11:08:51.365Z,51.48
2019-02-12T11:11:20.726Z,52.08
2019-02-12T11:13:50.057Z,51.65
2019-02-12T11:16:19.417Z,52.54
2019-02-12T11:18:48.750Z,52.49
2019-02-12T11:21:18.128Z,53.91
2019-02-12T11:23:47.450Z,53.63
2019-02-12T11:26:16.915Z,53.95
2019-02-12T11:28:46.888Z,49.17
2019-02-12T11:31:16.322Z,50.85
2019-02-12T11:33:45.653Z,50.57
2019-02-12T11:36:15.016Z,51.64
2019-02-12T11:38:47.337Z,51.87
2019-02-12T11:41:16.752Z,52.32
2019-02-12T11:43:46.562Z,53.77
2019-02-12T11:46:15.937Z,53.41
2019-02-12T11:48:45.275Z,53.56
2019-02-12T11:51:14.651Z,53.46
2019-02-12T11:53:44.009Z,54.86
2019-02-12T11:56:13.425Z,53.89
2019-02-12T11:58:42.706Z,55.25
2019-02-12T12:01:13.760Z,54.95
2019-02-12T12:03:43.090Z,54.29
2019-02-12T12:06:12.456Z,53.99
2019-02-12T12:08:41.806Z,54.08
2019-02-12T12:11:11.189Z,56.01
2019-02-12T12:13:40.528Z,55.74
2019-02-12T12:16:11.200Z,55.53
2019-02-12T12:18:40.617Z,55.44
2019-02-12T12:21:10.009Z,54.17
2019-02-12T12:23:39.339Z,54.27
2019-02-12T12:26:08.699Z,54.78
2019-02-12T12:28:38.052Z,52.80
2019-02-12T12:31:07.383Z,46.70
2019-02-12T12:33:36.761Z,43.68
2019-02-12T12:36:06.088Z,44.68
2019-02-12T12:38:35.626Z,46.89
2019-02-12T12:41:04.940Z,46.85
2019-02-12T12:43:34.319Z,42.26
2019-02-12T12:46:03.651Z,38.95
2019-02-12T12:48:33.017Z,35.08
2019-02-12T12:51:02.349Z,34.51
2019-02-12T12:53:32.778Z,33.38
2019-02-12T12:56:02.116Z,36.29
2019-02-12T12:58:31.639Z,38.54
2019-02-12T13:01:01.130Z,39.57
2019-02-12T13:03:30.659Z,42.48
2019-02-12T13:06:00.135Z,41.51
2019-02-12T13:08:29.498Z,43.60
2019-02-12T13:10:58.838Z,46.43
2019-02-12T13:13:28.204Z,47.16
2019-02-12T13:15:57.543Z,47.66
2019-02-12T13:18:28.415Z,47.94
2019-02-12T13:21:04.589Z,49.92
2019-02-12T13:23:34.916Z,50.20
2019-02-12T13:26:04.793Z,51.26
2019-02-12T13:28:40.791Z,51.13
2019-02-12T13:31:12.196Z,50.20
2019-02-12T13:33:45.553Z,50.93
2019-02-12T13:36:20.167Z,51.96
2019-02-12T13:38:52.752Z,49.30
2019-02-12T13:41:28.427Z,44.60
2019-02-12T13:43:58.349Z,42.69
2019-02-12T13:46:29.579Z,40.23
2019-02-12T13:48:59.845Z,39.48
2019-02-12T13:51:33.026Z,40.36
2019-02-12T13:54:04.776Z,42.30
2019-02-12T13:56:34.814Z,41.48
2019-02-12T13:59:04.704Z,38.29
2019-02-12T14:01:37.612Z,39.73
2019-02-12T14:04:10.306Z,41.58
2019-02-12T14:06:40.230Z,41.93
2019-02-12T14:09:15.040Z,41.47
2019-02-12T14:11:49.717Z,42.61
2019-02-12T14:14:23.657Z,43.49
2019-02-12T14:16:57.910Z,44.50
2019-02-12T14:19:35.059Z,44.17
2019-02-12T14:22:07.380Z,44.54
2019-02-12T14:24:38.378Z,44.53
2019-02-12T14:27:11.170Z,45.88
2019-02-12T14:29:45.554Z,45.23
2019-02-12T14:32:17.467Z,45.18
2019-02-12T14:34:52.177Z,45.73
2019-02-12T14:37:26.155Z,45.38
2019-02-12T14:39:57.140Z,47.17
2019-02-12T14:42:35.665Z,45.67
2019-02-12T14:45:12.327Z,46.41
2019-02-12T14:47:45.742Z,48.47
2019-02-12T14:50:18.802Z,47.84
2019-02-12T14:52:57.874Z,48.13
2019-02-12T14:55:33.841Z,48.82
2019-02-12T14:58:00.216Z,49.70
2019-02-12T15:00:29.945Z,50.24
2019-02-12T15:03:07.855Z,50.97
2019-02-12T15:05:41.176Z,51.11
2019-02-12T15:08:18.742Z,52.25
2019-02-12T15:10:50.454Z,52.30
2019-02-12T15:13:19.803Z,52.70
2019-02-12T15:16:05.983Z,55.01
2019-02-12T15:18:42.602Z,54.35
2019-02-12T15:21:17.709Z,54.75
2019-02-12T15:23:47.905Z,54.02
2019-02-12T15:26:19.018Z,54.34
2019-02-12T15:28:53.735Z,55.12
2019-02-12T15:31:24.958Z,55.47
2019-02-12T15:33:58.256Z,56.16
2019-02-12T15:36:28.485Z,56.21
2019-02-12T15:39:00.746Z,56.22
2019-02-12T15:41:34.411Z,56.42
2019-02-12T15:44:08.922Z,56.43
2019-02-12T15:46:42.911Z,56.91
2019-02-12T15:49:24.361Z,57.22
2019-02-12T15:51:57.369Z,58.01
2019-02-12T15:54:27.277Z,57.36
2019-02-12T15:56:58.330Z,57.83
2019-02-12T15:59:33.905Z,57.83
2019-02-12T16:02:06.144Z,58.06
2019-02-12T16:04:40.239Z,57.89
2019-02-12T16:07:11.716Z,58.73
2019-02-12T16:09:43.322Z,59.44
2019-02-12T16:12:17.969Z,58.08
2019-02-12T16:14:48.019Z,58.06
2019-02-12T16:17:25.035Z,58.47
2019-02-12T16:19:55.261Z,58.50
2019-02-12T16:22:28.982Z,58.97
2019-02-12T16:24:58.865Z,59.32
2019-02-12T16:27:29.694Z,59.02
2019-02-12T16:30:04.152Z,58.56
2019-02-12T16:32:44.144Z,58.92
2019-02-12T16:35:22.009Z,58.98
2019-02-12T16:37:53.251Z,58.63
2019-02-12T16:40:25.390Z,59.87
2019-02-12T16:42:54.901Z,59.28
2019-02-12T16:45:41.969Z,59.02
2019-02-12T16:48:14.972Z,59.15
2019-02-12T16:50:46.966Z,59.71
2019-02-12T16:53:27.873Z,59.89
2019-02-12T16:56:07.933Z,60.15
2019-02-12T16:58:39.920Z,59.91
2019-02-12T17:01:09.784Z,59.66
2019-02-12T17:03:41.598Z,59.76
2019-02-12T17:06:13.332Z,60.60
2019-02-12T17:08:42.690Z,60.41
2019-02-12T17:11:12.077Z,60.21
2019-02-12T17:13:41.406Z,60.20
2019-02-12T17:16:10.775Z,59.93
2019-02-12T17:18:40.138Z,60.12
2019-02-12T17:21:09.460Z,60.01
2019-02-12T17:23:38.824Z,60.09
2019-02-12T17:26:16.128Z,60.16
2019-02-12T17:28:39.199Z,60.46
2019-02-12T17:31:08.538Z,60.63
2019-02-12T17:33:37.888Z,60.97
2019-02-12T17:36:07.219Z,60.92
2019-02-12T17:38:36.580Z,61.16
2019-02-12T17:41:05.912Z,61.30
2019-02-12T17:43:35.275Z,61.39
2019-02-12T17:46:04.600Z,61.88
2019-02-12T17:48:33.956Z,62.56
2019-02-12T17:51:03.291Z,62.49
2019-02-12T17:53:32.644Z,63.12
2019-02-12T17:56:01.978Z,63.20
2019-02-12T17:58:31.331Z,63.71
2019-02-12T18:01:00.659Z,64.09
2019-02-12T18:03:30.008Z,64.23
2019-02-12T18:05:59.353Z,64.05
2019-02-12T18:08:28.978Z,64.03
2019-02-12T18:10:58.324Z,64.21
2019-02-12T18:13:27.686Z,64.34
2019-02-12T18:15:57.013Z,64.63
2019-02-12T18:18:26.363Z,64.60
2019-02-12T18:20:55.686Z,64.95
2019-02-12T18:23:25.042Z,65.18
2019-02-12T18:25:54.379Z,65.38
2019-02-12T18:28:23.744Z,65.54
2019-02-12T18:30:53.070Z,65.56
2019-02-12T18:33:22.421Z,65.60
2019-02-12T18:35:51.753Z,65.65
2019-02-12T18:38:21.113Z,65.50
2019-02-12T18:40:50.451Z,65.68
2019-02-12T18:43:19.987Z,65.86
2019-02-12T18:45:49.459Z,65.87
2019-02-12T18:48:18.833Z,65.85
2019-02-12T18:50:48.175Z,65.93
2019-02-12T18:53:17.793Z,65.91
2019-02-12T18:55:47.122Z,65.75
2019-02-12T18:58:16.481Z,65.79
2019-02-12T19:00:45.817Z,65.56
2019-02-12T19:03:15.191Z,65.45
2019-02-12T19:05:44.522Z,65.51
2019-02-12T19:08:14.096Z,65.39
2019-02-12T19:10:43.427Z,65.59
2019-02-12T19:13:12.775Z,65.71
2019-02-12T19:15:42.110Z,65.33
2019-02-12T19:18:17.950Z,65.63
2019-02-12T19:20:47.280Z,65.64
2019-02-12T19:23:16.862Z,65.64
2019-02-12T19:25:46.686Z,65.87
2019-02-12T19:28:16.061Z,66.08
2019-02-12T19:30:45.384Z,66.45
2019-02-12T19:33:14.739Z,66.22
2019-02-12T19:35:44.103Z,66.78
2019-02-12T19:38:13.455Z,67.15
2019-02-12T19:40:42.804Z,67.50
2019-02-12T19:43:12.145Z,67.52
2019-02-12T19:45:41.502Z,67.68
2019-02-12T19:48:10.833Z,67.82
2019-02-12T19:50:40.179Z,67.96
2019-02-12T19:53:09.509Z,67.85
2019-02-12T19:55:38.876Z,67.96
2019-02-12T19:58:08.204Z,67.92
2019-02-12T20:00:37.564Z,67.88
2019-02-12T20:03:06.901Z,67.72
2019-02-12T20:05:36.260Z,67.81
2019-02-12T20:08:05.600Z,67.71
2019-02-12T20:10:34.948Z,67.66
2019-02-12T20:13:04.284Z,67.48
2019-02-12T20:15:33.645Z,67.45
2019-02-12T20:18:03.041Z,67.48
2019-02-12T20:20:32.392Z,67.37
2019-02-12T20:23:01.791Z,67.07
2019-02-12T20:25:31.149Z,67.17
2019-02-12T20:28:00.482Z,67.19
2019-02-12T20:30:29.827Z,67.51
2019-02-12T20:32:59.163Z,67.64
2019-02-12T20:35:36.078Z,67.54
2019-02-12T20:37:59.545Z,67.72
2019-02-12T20:40:30.082Z,67.79
2019-02-12T20:42:59.403Z,67.95
2019-02-12T20:45:28.926Z,68.05
2019-02-12T20:47:58.247Z,68.10
2019-02-12T20:50:27.605Z,68.34
2019-02-12T20:52:56.931Z,68.50
2019-02-12T20:55:26.371Z,68.61
2019-02-12T20:57:55.704Z,68.74
2019-02-12T21:00:25.139Z,68.87
2019-02-12T21:02:54.498Z,68.78
2019-02-12T21:05:23.828Z,69.16
2019-02-12T21:07:53.176Z,69.20
2019-02-12T21:10:23.439Z,69.12
2019-02-12T21:12:52.792Z,69.49
2019-02-12T21:15:25.028Z,69.09
2019-02-12T21:17:54.449Z,68.66
2019-02-12T21:20:23.782Z,68.59
2019-02-12T21:22:53.209Z,68.64
2019-02-12T21:25:22.541Z,68.56
2019-02-12T21:27:51.895Z,68.86
2019-02-12T21:30:26.533Z,69.03
2019-02-12T21:32:55.889Z,69.07
2019-02-12T21:35:25.219Z,69.24
2019-02-12T21:37:54.587Z,69.11
2019-02-12T21:40:26.108Z,68.90
2019-02-12T21:42:55.480Z,69.34
2019-02-12T21:45:24.794Z,69.69
2019-02-12T21:47:54.147Z,69.85
2019-02-12T21:50:23.482Z,70.20
2019-02-12T21:52:52.828Z,70.38
2019-02-12T21:55:22.425Z,70.46
2019-02-12T21:57:51.786Z,70.54
2019-02-12T22:00:21.948Z,70.20
2019-02-12T22:02:51.320Z,70.16
2019-02-12T22:05:20.660Z,69.95
2019-02-12T22:07:50.187Z,69.86
2019-02-12T22:10:25.734Z,70.72
2019-02-12T22:12:55.095Z,70.29
2019-02-12T22:15:24.427Z,69.88
2019-02-12T22:17:53.795Z,69.50
2019-02-12T22:20:23.857Z,69.41
2019-02-12T22:22:53.218Z,69.43
2019-02-12T22:25:22.551Z,69.37
2019-02-12T22:27:51.910Z,69.60
2019-02-12T22:30:25.547Z,69.76
2019-02-12T22:32:54.899Z,69.69
2019-02-12T22:35:24.234Z,69.80
2019-02-12T22:37:53.588Z,69.70
2019-02-12T22:40:22.916Z,69.81
2019-02-12T22:42:52.275Z,69.50
2019-02-12T22:45:24.111Z,69.75
2019-02-12T22:47:53.464Z,69.89
2019-02-12T22:50:22.796Z,70.22
2019-02-12T22:52:52.163Z,70.06
2019-02-12T22:55:21.484Z,70.00
2019-02-12T22:57:50.837Z,69.82
2019-02-12T23:00:36.417Z,69.61
2019-02-12T23:03:05.780Z,69.07
2019-02-12T23:05:35.118Z,69.36
2019-02-12T23:08:04.492Z,69.54
2019-02-12T23:10:33.842Z,69.18
2019-02-12T23:13:03.203Z,69.11
2019-02-12T23:15:32.533Z,69.26
2019-02-12T23:18:01.904Z,68.96
2019-02-12T23:20:31.232Z,69.05
2019-02-12T23:23:00.584Z,69.28
2019-02-12T23:25:29.915Z,69.59
2019-02-12T23:27:59.264Z,69.54
2019-02-12T23:30:28.596Z,69.36
2019-02-12T23:32:58.133Z,69.29
2019-02-12T23:35:27.460Z,69.54
2019-02-12T23:37:56.820Z,69.55
2019-02-12T23:40:26.147Z,69.34
2019-02-12T23:42:55.497Z,69.49
2019-02-12T23:45:24.861Z,69.46
2019-02-12T23:47:54.213Z,69.38
2019-02-12T23:50:23.564Z,69.42
2019-02-12T23:52:52.898Z,69.56
2019-02-12T23:55:22.623Z,69.53
2019-02-12T23:57:51.963Z,69.26
